Saxtons River, Vermont
Current Conditions -  °F | °C
As of 11:54 PM on Wednesday 17 Dec 2014 (Local Time) from KVSF Reporting Station
Overcast Overcast  
Wind Chill: 36°   Ceiling: 5500
Heat Index: 36°   Visibility: 10mi
Dew Point: 31°   Wind: 0mph
Humidity: 82%   Direction: NA
Pressure: 29.73"   Gusts: NA
Location:  43.14°N, 72.51°W
Report Text: KVSF 180454Z AUTO 00000KT 10SM SCT032 OVC055 02/M01 A2973 RMK AO2 SLP073 T00221006 400330000 TSNO
Loading
Personal Weather Stations






























Interactive Weather Map New forecast layout! Learn more

10-Day Weather Forecast

Advertisements
Track Severe Weather on mobile